sensor_id;sensor_type;location;lat;lon;timestamp;P1;durP1;ratioP1;P2;durP2;ratioP2
67571;SDS011;54397;47.506;19.158;2024-03-29T00:00:13;1.00;;;0.40;;
67571;SDS011;54397;47.506;19.158;2024-03-29T00:03:38;1.60;;;0.55;;
67571;SDS011;54397;47.506;19.158;2024-03-29T00:07:04;2.40;;;0.68;;
67571;SDS011;54397;47.506;19.158;2024-03-29T00:10:25;0.50;;;0.50;;
67571;SDS011;54397;47.506;19.158;2024-03-29T00:13:45;0.40;;;0.40;;
67571;SDS011;54397;47.506;19.158;2024-03-29T00:17:06;0.30;;;0.30;;
67571;SDS011;54397;47.506;19.158;2024-03-29T00:20:29;0.50;;;0.50;;
67571;SDS011;54397;47.506;19.158;2024-03-29T00:23:50;5.85;;;3.78;;
67571;SDS011;54397;47.506;19.158;2024-03-29T00:27:11;1.50;;;0.63;;
67571;SDS011;54397;47.506;19.158;2024-03-29T00:30:34;0.50;;;0.50;;
67571;SDS011;54397;47.506;19.158;2024-03-29T00:33:55;0.60;;;0.60;;
67571;SDS011;54397;47.506;19.158;2024-03-29T00:37:16;1.85;;;0.75;;
67571;SDS011;54397;47.506;19.158;2024-03-29T00:40:37;1.17;;;0.70;;
67571;SDS011;54397;47.506;19.158;2024-03-29T00:43:58;1.48;;;0.60;;
67571;SDS011;54397;47.506;19.158;2024-03-29T00:47:18;0.75;;;0.60;;
67571;SDS011;54397;47.506;19.158;2024-03-29T00:50:41;1.30;;;0.50;;
67571;SDS011;54397;47.506;19.158;2024-03-29T00:54:02;1.02;;;0.50;;
67571;SDS011;54397;47.506;19.158;2024-03-29T00:57:25;0.40;;;0.40;;
67571;SDS011;54397;47.506;19.158;2024-03-29T01:00:48;0.50;;;0.50;;
67571;SDS011;54397;47.506;19.158;2024-03-29T01:04:14;0.38;;;0.38;;
67571;SDS011;54397;47.506;19.158;2024-03-29T01:07:40;0.45;;;0.45;;
67571;SDS011;54397;47.506;19.158;2024-03-29T01:11:03;0.28;;;0.28;;
67571;SDS011;54397;47.506;19.158;2024-03-29T01:14:27;0.55;;;0.45;;
67571;SDS011;54397;47.506;19.158;2024-03-29T01:17:50;0.35;;;0.35;;
67571;SDS011;54397;47.506;19.158;2024-03-29T01:21:11;2.30;;;0.50;;
67571;SDS011;54397;47.506;19.158;2024-03-29T01:24:32;1.08;;;0.73;;
67571;SDS011;54397;47.506;19.158;2024-03-29T01:27:56;0.70;;;0.70;;
67571;SDS011;54397;47.506;19.158;2024-03-29T01:31:19;0.40;;;0.40;;
67571;SDS011;54397;47.506;19.158;2024-03-29T01:34:42;0.77;;;0.60;;
67571;SDS011;54397;47.506;19.158;2024-03-29T01:38:03;5.50;;;3.13;;
67571;SDS011;54397;47.506;19.158;2024-03-29T01:41:24;0.80;;;0.75;;
67571;SDS011;54397;47.506;19.158;2024-03-29T01:44:50;2.35;;;1.00;;
67571;SDS011;54397;47.506;19.158;2024-03-29T01:48:16;1.00;;;0.90;;
67571;SDS011;54397;47.506;19.158;2024-03-29T01:51:37;0.70;;;0.70;;
67571;SDS011;54397;47.506;19.158;2024-03-29T01:55:01;1.08;;;0.70;;
67571;SDS011;54397;47.506;19.158;2024-03-29T01:58:22;0.50;;;0.50;;
67571;SDS011;54397;47.506;19.158;2024-03-29T02:01:43;4.47;;;0.63;;
67571;SDS011;54397;47.506;19.158;2024-03-29T02:05:06;0.60;;;0.60;;
67571;SDS011;54397;47.506;19.158;2024-03-29T02:08:30;0.57;;;0.40;;
67571;SDS011;54397;47.506;19.158;2024-03-29T02:11:54;0.52;;;0.52;;
67571;SDS011;54397;47.506;19.158;2024-03-29T02:15:15;0.95;;;0.60;;
67571;SDS011;54397;47.506;19.158;2024-03-29T02:18:38;1.48;;;0.50;;
67571;SDS011;54397;47.506;19.158;2024-03-29T02:22:01;1.13;;;0.57;;
67571;SDS011;54397;47.506;19.158;2024-03-29T02:25:30;0.60;;;0.57;;
67571;SDS011;54397;47.506;19.158;2024-03-29T02:28:51;0.40;;;0.40;;
67571;SDS011;54397;47.506;19.158;2024-03-29T02:32:14;0.60;;;0.60;;
67571;SDS011;54397;47.506;19.158;2024-03-29T02:35:37;0.60;;;0.60;;
67571;SDS011;54397;47.506;19.158;2024-03-29T02:38:58;7.57;;;4.75;;
67571;SDS011;54397;47.506;19.158;2024-03-29T02:42:21;1.45;;;0.70;;
67571;SDS011;54397;47.506;19.158;2024-03-29T02:45:42;0.77;;;0.70;;
67571;SDS011;54397;47.506;19.158;2024-03-29T02:49:03;0.43;;;0.43;;
67571;SDS011;54397;47.506;19.158;2024-03-29T02:52:24;2.47;;;0.57;;
67571;SDS011;54397;47.506;19.158;2024-03-29T02:55:51;0.57;;;0.55;;
67571;SDS011;54397;47.506;19.158;2024-03-29T02:59:12;2.17;;;0.80;;
67571;SDS011;54397;47.506;19.158;2024-03-29T03:02:36;0.73;;;0.65;;
67571;SDS011;54397;47.506;19.158;2024-03-29T03:05:57;2.08;;;0.70;;
67571;SDS011;54397;47.506;19.158;2024-03-29T03:09:21;2.85;;;2.05;;
67571;SDS011;54397;47.506;19.158;2024-03-29T03:13:00;1.02;;;0.70;;
67571;SDS011;54397;47.506;19.158;2024-03-29T03:16:23;9.52;;;0.88;;
67571;SDS011;54397;47.506;19.158;2024-03-29T03:19:50;1.20;;;0.70;;
67571;SDS011;54397;47.506;19.158;2024-03-29T03:23:13;1.40;;;0.60;;
67571;SDS011;54397;47.506;19.158;2024-03-29T03:26:39;0.57;;;0.57;;
67571;SDS011;54397;47.506;19.158;2024-03-29T03:29:59;0.70;;;0.57;;
67571;SDS011;54397;47.506;19.158;2024-03-29T03:33:25;0.95;;;0.80;;
67571;SDS011;54397;47.506;19.158;2024-03-29T03:36:45;4.10;;;0.55;;
67571;SDS011;54397;47.506;19.158;2024-03-29T03:40:06;0.65;;;0.63;;
67571;SDS011;54397;47.506;19.158;2024-03-29T03:43:30;0.90;;;0.80;;
67571;SDS011;54397;47.506;19.158;2024-03-29T03:46:51;1.65;;;0.80;;
67571;SDS011;54397;47.506;19.158;2024-03-29T03:50:14;3.55;;;1.02;;
67571;SDS011;54397;47.506;19.158;2024-03-29T03:53:35;2.80;;;0.90;;
67571;SDS011;54397;47.506;19.158;2024-03-29T03:56:58;2.80;;;0.90;;
67571;SDS011;54397;47.506;19.158;2024-03-29T04:00:19;2.92;;;0.93;;
67571;SDS011;54397;47.506;19.158;2024-03-29T04:03:40;1.60;;;1.00;;
67571;SDS011;54397;47.506;19.158;2024-03-29T04:07:04;5.18;;;1.00;;
67571;SDS011;54397;47.506;19.158;2024-03-29T04:10:27;2.55;;;0.80;;
67571;SDS011;54397;47.506;19.158;2024-03-29T04:13:49;7.07;;;4.38;;
67571;SDS011;54397;47.506;19.158;2024-03-29T04:17:10;5.78;;;3.63;;
67571;SDS011;54397;47.506;19.158;2024-03-29T04:20:31;3.70;;;1.10;;
67571;SDS011;54397;47.506;19.158;2024-03-29T04:23:54;13.00;;;7.38;;
67571;SDS011;54397;47.506;19.158;2024-03-29T04:27:15;12.23;;;7.07;;
67571;SDS011;54397;47.506;19.158;2024-03-29T04:30:38;2.03;;;1.30;;
67571;SDS011;54397;47.506;19.158;2024-03-29T04:34:02;1.40;;;0.93;;
67571;SDS011;54397;47.506;19.158;2024-03-29T04:37:25;1.88;;;1.40;;
67571;SDS011;54397;47.506;19.158;2024-03-29T04:40:46;12.27;;;6.80;;
67571;SDS011;54397;47.506;19.158;2024-03-29T04:44:07;10.63;;;6.07;;
67571;SDS011;54397;47.506;19.158;2024-03-29T04:47:30;8.43;;;4.93;;
67571;SDS011;54397;47.506;19.158;2024-03-29T04:50:50;4.88;;;2.53;;
67571;SDS011;54397;47.506;19.158;2024-03-29T04:54:11;4.55;;;2.65;;
67571;SDS011;54397;47.506;19.158;2024-03-29T04:57:32;3.53;;;2.00;;
67571;SDS011;54397;47.506;19.158;2024-03-29T05:00:52;2.72;;;2.05;;
67571;SDS011;54397;47.506;19.158;2024-03-29T05:04:16;2.80;;;1.83;;
67571;SDS011;54397;47.506;19.158;2024-03-29T05:07:45;1.92;;;1.40;;
67571;SDS011;54397;47.506;19.158;2024-03-29T05:11:06;2.30;;;1.40;;
67571;SDS011;54397;47.506;19.158;2024-03-29T05:14:28;2.22;;;1.10;;
67571;SDS011;54397;47.506;19.158;2024-03-29T05:17:51;2.80;;;2.08;;
67571;SDS011;54397;47.506;19.158;2024-03-29T05:21:11;3.95;;;2.92;;
67571;SDS011;54397;47.506;19.158;2024-03-29T05:24:32;3.35;;;2.67;;
67571;SDS011;54397;47.506;19.158;2024-03-29T05:27:55;1.58;;;1.40;;
67571;SDS011;54397;47.506;19.158;2024-03-29T05:31:16;2.60;;;1.80;;
67571;SDS011;54397;47.506;19.158;2024-03-29T05:34:37;2.28;;;1.60;;
67571;SDS011;54397;47.506;19.158;2024-03-29T05:38:00;1.30;;;1.20;;
67571;SDS011;54397;47.506;19.158;2024-03-29T05:41:23;2.55;;;1.80;;
67571;SDS011;54397;47.506;19.158;2024-03-29T05:44:44;1.98;;;1.20;;
67571;SDS011;54397;47.506;19.158;2024-03-29T05:48:04;1.55;;;1.45;;
67571;SDS011;54397;47.506;19.158;2024-03-29T05:51:25;4.00;;;1.52;;
67571;SDS011;54397;47.506;19.158;2024-03-29T05:54:46;1.83;;;1.40;;
67571;SDS011;54397;47.506;19.158;2024-03-29T05:58:07;2.80;;;1.75;;
67571;SDS011;54397;47.506;19.158;2024-03-29T06:01:28;2.33;;;2.13;;
67571;SDS011;54397;47.506;19.158;2024-03-29T06:04:48;1.80;;;1.60;;
67571;SDS011;54397;47.506;19.158;2024-03-29T06:08:14;1.80;;;1.70;;
67571;SDS011;54397;47.506;19.158;2024-03-29T06:11:35;5.43;;;2.13;;
67571;SDS011;54397;47.506;19.158;2024-03-29T06:14:56;5.50;;;3.30;;
67571;SDS011;54397;47.506;19.158;2024-03-29T06:18:35;4.53;;;1.42;;
67571;SDS011;54397;47.506;19.158;2024-03-29T06:21:58;11.80;;;1.92;;
67571;SDS011;54397;47.506;19.158;2024-03-29T06:25:26;7.32;;;1.75;;
67571;SDS011;54397;47.506;19.158;2024-03-29T06:28:47;1.67;;;1.20;;
67571;SDS011;54397;47.506;19.158;2024-03-29T06:32:10;1.30;;;1.20;;
67571;SDS011;54397;47.506;19.158;2024-03-29T06:35:33;1.98;;;1.20;;
67571;SDS011;54397;47.506;19.158;2024-03-29T06:38:54;2.17;;;1.17;;
67571;SDS011;54397;47.506;19.158;2024-03-29T06:42:15;1.50;;;1.10;;
67571;SDS011;54397;47.506;19.158;2024-03-29T06:45:39;1.30;;;1.20;;
67571;SDS011;54397;47.506;19.158;2024-03-29T06:49:00;2.10;;;1.40;;
67571;SDS011;54397;47.506;19.158;2024-03-29T06:52:21;15.23;;;8.82;;
67571;SDS011;54397;47.506;19.158;2024-03-29T06:55:41;8.35;;;4.90;;
67571;SDS011;54397;47.506;19.158;2024-03-29T06:59:04;2.97;;;1.80;;
67571;SDS011;54397;47.506;19.158;2024-03-29T07:02:25;1.13;;;1.02;;
67571;SDS011;54397;47.506;19.158;2024-03-29T07:05:46;1.00;;;0.93;;
67571;SDS011;54397;47.506;19.158;2024-03-29T07:09:09;1.20;;;1.08;;
67571;SDS011;54397;47.506;19.158;2024-03-29T07:12:30;1.60;;;1.00;;
67571;SDS011;54397;47.506;19.158;2024-03-29T07:15:53;1.30;;;1.00;;
67571;SDS011;54397;47.506;19.158;2024-03-29T07:19:14;1.92;;;1.35;;
67571;SDS011;54397;47.506;19.158;2024-03-29T07:22:36;1.10;;;1.00;;
67571;SDS011;54397;47.506;19.158;2024-03-29T07:26:00;3.53;;;1.23;;
67571;SDS011;54397;47.506;19.158;2024-03-29T07:29:24;2.93;;;1.10;;
67571;SDS011;54397;47.506;19.158;2024-03-29T07:32:47;2.20;;;1.70;;
67571;SDS011;54397;47.506;19.158;2024-03-29T07:36:08;1.77;;;1.30;;
67571;SDS011;54397;47.506;19.158;2024-03-29T07:39:32;1.95;;;1.65;;
67571;SDS011;54397;47.506;19.158;2024-03-29T07:42:56;0.98;;;0.88;;
67571;SDS011;54397;47.506;19.158;2024-03-29T07:46:16;0.98;;;0.75;;
67571;SDS011;54397;47.506;19.158;2024-03-29T07:49:37;1.30;;;0.90;;
67571;SDS011;54397;47.506;19.158;2024-03-29T07:52:57;1.50;;;0.75;;
67571;SDS011;54397;47.506;19.158;2024-03-29T07:56:18;0.80;;;0.80;;
67571;SDS011;54397;47.506;19.158;2024-03-29T07:59:41;2.05;;;0.70;;
67571;SDS011;54397;47.506;19.158;2024-03-29T08:03:02;4.15;;;1.05;;
67571;SDS011;54397;47.506;19.158;2024-03-29T08:06:24;0.70;;;0.70;;
67571;SDS011;54397;47.506;19.158;2024-03-29T08:09:44;1.45;;;0.80;;
67571;SDS011;54397;47.506;19.158;2024-03-29T08:13:07;1.10;;;0.77;;
67571;SDS011;54397;47.506;19.158;2024-03-29T08:16:33;0.85;;;0.70;;
67571;SDS011;54397;47.506;19.158;2024-03-29T08:19:56;1.52;;;0.73;;
67571;SDS011;54397;47.506;19.158;2024-03-29T08:23:17;0.80;;;0.60;;
67571;SDS011;54397;47.506;19.158;2024-03-29T08:26:38;1.08;;;1.00;;
67571;SDS011;54397;47.506;19.158;2024-03-29T08:29:58;0.70;;;0.70;;
67571;SDS011;54397;47.506;19.158;2024-03-29T08:33:22;1.25;;;1.00;;
67571;SDS011;54397;47.506;19.158;2024-03-29T08:36:45;3.13;;;1.00;;
67571;SDS011;54397;47.506;19.158;2024-03-29T08:40:10;1.70;;;1.00;;
67571;SDS011;54397;47.506;19.158;2024-03-29T08:43:31;1.95;;;1.00;;
67571;SDS011;54397;47.506;19.158;2024-03-29T08:46:57;5.63;;;0.98;;
67571;SDS011;54397;47.506;19.158;2024-03-29T08:50:18;1.48;;;1.00;;
67571;SDS011;54397;47.506;19.158;2024-03-29T08:53:39;0.85;;;0.50;;
67571;SDS011;54397;47.506;19.158;2024-03-29T08:57:00;2.47;;;0.77;;
67571;SDS011;54397;47.506;19.158;2024-03-29T09:00:21;0.75;;;0.63;;
67571;SDS011;54397;47.506;19.158;2024-03-29T09:03:42;2.20;;;0.60;;
67571;SDS011;54397;47.506;19.158;2024-03-29T09:07:06;0.93;;;0.60;;
67571;SDS011;54397;47.506;19.158;2024-03-29T09:10:27;1.05;;;0.60;;
67571;SDS011;54397;47.506;19.158;2024-03-29T09:13:47;2.28;;;0.57;;
67571;SDS011;54397;47.506;19.158;2024-03-29T09:17:08;0.90;;;0.60;;
67571;SDS011;54397;47.506;19.158;2024-03-29T09:20:31;0.63;;;0.25;;
67571;SDS011;54397;47.506;19.158;2024-03-29T09:23:52;0.32;;;0.30;;
67571;SDS011;54397;47.506;19.158;2024-03-29T09:27:16;0.30;;;0.30;;
67571;SDS011;54397;47.506;19.158;2024-03-29T09:30:39;0.32;;;0.30;;
67571;SDS011;54397;47.506;19.158;2024-03-29T09:34:00;0.52;;;0.30;;
67571;SDS011;54397;47.506;19.158;2024-03-29T09:37:21;1.60;;;0.60;;
67571;SDS011;54397;47.506;19.158;2024-03-29T09:40:44;0.30;;;0.30;;
67571;SDS011;54397;47.506;19.158;2024-03-29T09:44:05;1.20;;;0.40;;
67571;SDS011;54397;47.506;19.158;2024-03-29T09:47:27;0.45;;;0.20;;
67571;SDS011;54397;47.506;19.158;2024-03-29T09:50:48;0.55;;;0.30;;
67571;SDS011;54397;47.506;19.158;2024-03-29T09:54:12;0.85;;;0.40;;
67571;SDS011;54397;47.506;19.158;2024-03-29T09:57:35;0.60;;;0.50;;
67571;SDS011;54397;47.506;19.158;2024-03-29T10:00:56;1.67;;;0.32;;
67571;SDS011;54397;47.506;19.158;2024-03-29T10:04:17;0.95;;;0.50;;
67571;SDS011;54397;47.506;19.158;2024-03-29T10:07:43;0.95;;;0.77;;
67571;SDS011;54397;47.506;19.158;2024-03-29T10:11:05;0.85;;;0.60;;
67571;SDS011;54397;47.506;19.158;2024-03-29T10:14:26;0.55;;;0.55;;
67571;SDS011;54397;47.506;19.158;2024-03-29T10:17:47;0.85;;;0.50;;
67571;SDS011;54397;47.506;19.158;2024-03-29T10:21:16;0.30;;;0.30;;
67571;SDS011;54397;47.506;19.158;2024-03-29T10:24:37;0.73;;;0.45;;
67571;SDS011;54397;47.506;19.158;2024-03-29T10:28:00;2.30;;;0.43;;
67571;SDS011;54397;47.506;19.158;2024-03-29T10:31:26;2.20;;;0.50;;
67571;SDS011;54397;47.506;19.158;2024-03-29T10:34:49;0.60;;;0.60;;
67571;SDS011;54397;47.506;19.158;2024-03-29T10:38:10;2.35;;;0.38;;
67571;SDS011;54397;47.506;19.158;2024-03-29T10:41:34;2.70;;;0.63;;
67571;SDS011;54397;47.506;19.158;2024-03-29T10:44:57;6.20;;;1.27;;
67571;SDS011;54397;47.506;19.158;2024-03-29T10:48:19;2.13;;;0.90;;
67571;SDS011;54397;47.506;19.158;2024-03-29T10:51:44;1.17;;;0.70;;
67571;SDS011;54397;47.506;19.158;2024-03-29T10:55:07;2.22;;;1.00;;
67571;SDS011;54397;47.506;19.158;2024-03-29T10:58:33;1.63;;;0.82;;
67571;SDS011;54397;47.506;19.158;2024-03-29T11:01:57;1.42;;;0.80;;
67571;SDS011;54397;47.506;19.158;2024-03-29T11:05:26;1.40;;;0.73;;
67571;SDS011;54397;47.506;19.158;2024-03-29T11:08:52;1.75;;;0.95;;
67571;SDS011;54397;47.506;19.158;2024-03-29T11:12:13;2.50;;;1.52;;
67571;SDS011;54397;47.506;19.158;2024-03-29T11:15:37;3.53;;;1.48;;
67571;SDS011;54397;47.506;19.158;2024-03-29T11:19:03;1.48;;;0.80;;
67571;SDS011;54397;47.506;19.158;2024-03-29T11:22:26;5.32;;;1.30;;
67571;SDS011;54397;47.506;19.158;2024-03-29T11:25:51;3.15;;;1.10;;
67571;SDS011;54397;47.506;19.158;2024-03-29T11:29:22;1.60;;;0.93;;
67571;SDS011;54397;47.506;19.158;2024-03-29T11:32:44;8.45;;;1.42;;
67571;SDS011;54397;47.506;19.158;2024-03-29T11:39:37;2.55;;;1.20;;
67571;SDS011;54397;47.506;19.158;2024-03-29T11:43:01;3.92;;;1.23;;
67571;SDS011;54397;47.506;19.158;2024-03-29T11:46:22;4.03;;;1.40;;
67571;SDS011;54397;47.506;19.158;2024-03-29T11:49:55;5.47;;;1.42;;
67571;SDS011;54397;47.506;19.158;2024-03-29T11:56:42;3.15;;;1.15;;
67571;SDS011;54397;47.506;19.158;2024-03-29T12:00:06;4.38;;;1.27;;
67571;SDS011;54397;47.506;19.158;2024-03-29T12:03:28;3.50;;;1.30;;
67571;SDS011;54397;47.506;19.158;2024-03-29T12:06:52;4.28;;;1.60;;
67571;SDS011;54397;47.506;19.158;2024-03-29T12:10:13;4.72;;;1.27;;
67571;SDS011;54397;47.506;19.158;2024-03-29T12:13:37;5.20;;;1.60;;
67571;SDS011;54397;47.506;19.158;2024-03-29T12:17:00;5.10;;;1.13;;
67571;SDS011;54397;47.506;19.158;2024-03-29T12:20:24;4.53;;;1.27;;
67571;SDS011;54397;47.506;19.158;2024-03-29T12:23:49;5.22;;;1.50;;
67571;SDS011;54397;47.506;19.158;2024-03-29T12:27:13;6.18;;;1.38;;
67571;SDS011;54397;47.506;19.158;2024-03-29T12:30:36;12.27;;;1.65;;
67571;SDS011;54397;47.506;19.158;2024-03-29T12:34:00;3.80;;;1.33;;
67571;SDS011;54397;47.506;19.158;2024-03-29T12:37:21;6.18;;;1.40;;
67571;SDS011;54397;47.506;19.158;2024-03-29T12:40:42;5.93;;;1.60;;
67571;SDS011;54397;47.506;19.158;2024-03-29T12:44:08;5.03;;;1.30;;
67571;SDS011;54397;47.506;19.158;2024-03-29T12:47:29;4.97;;;1.70;;
67571;SDS011;54397;47.506;19.158;2024-03-29T12:50:53;6.70;;;1.70;;
67571;SDS011;54397;47.506;19.158;2024-03-29T12:54:16;6.50;;;3.40;;
67571;SDS011;54397;47.506;19.158;2024-03-29T12:57:40;9.63;;;1.70;;
67571;SDS011;54397;47.506;19.158;2024-03-29T13:01:07;9.68;;;1.60;;
67571;SDS011;54397;47.506;19.158;2024-03-29T13:04:30;4.57;;;1.70;;
67571;SDS011;54397;47.506;19.158;2024-03-29T13:07:53;5.25;;;1.65;;
67571;SDS011;54397;47.506;19.158;2024-03-29T13:11:17;6.47;;;1.58;;
67571;SDS011;54397;47.506;19.158;2024-03-29T13:14:37;4.70;;;1.45;;
67571;SDS011;54397;47.506;19.158;2024-03-29T13:17:58;11.13;;;2.95;;
67571;SDS011;54397;47.506;19.158;2024-03-29T13:21:20;5.03;;;1.60;;
67571;SDS011;54397;47.506;19.158;2024-03-29T13:24:40;3.65;;;1.60;;
67571;SDS011;54397;47.506;19.158;2024-03-29T13:28:01;8.48;;;2.60;;
67571;SDS011;54397;47.506;19.158;2024-03-29T13:31:24;5.55;;;1.80;;
67571;SDS011;54397;47.506;19.158;2024-03-29T13:34:48;7.82;;;1.90;;
67571;SDS011;54397;47.506;19.158;2024-03-29T13:38:09;5.45;;;1.83;;
67571;SDS011;54397;47.506;19.158;2024-03-29T13:41:30;5.18;;;1.50;;
67571;SDS011;54397;47.506;19.158;2024-03-29T13:44:51;5.20;;;1.50;;
67571;SDS011;54397;47.506;19.158;2024-03-29T13:48:13;10.05;;;1.80;;
67571;SDS011;54397;47.506;19.158;2024-03-29T13:51:36;4.22;;;1.58;;
67571;SDS011;54397;47.506;19.158;2024-03-29T13:55:00;8.68;;;2.15;;
67571;SDS011;54397;47.506;19.158;2024-03-29T13:58:22;7.60;;;1.65;;
67571;SDS011;54397;47.506;19.158;2024-03-29T14:01:45;9.45;;;1.90;;
67571;SDS011;54397;47.506;19.158;2024-03-29T14:05:06;6.47;;;1.73;;
67571;SDS011;54397;47.506;19.158;2024-03-29T14:08:27;9.13;;;1.90;;
67571;SDS011;54397;47.506;19.158;2024-03-29T14:11:48;5.53;;;1.90;;
67571;SDS011;54397;47.506;19.158;2024-03-29T14:15:09;7.18;;;1.70;;
67571;SDS011;54397;47.506;19.158;2024-03-29T14:18:32;5.88;;;1.77;;
67571;SDS011;54397;47.506;19.158;2024-03-29T14:21:52;6.63;;;1.98;;
67571;SDS011;54397;47.506;19.158;2024-03-29T14:25:13;7.65;;;1.80;;
67571;SDS011;54397;47.506;19.158;2024-03-29T14:28:36;5.78;;;1.77;;
67571;SDS011;54397;47.506;19.158;2024-03-29T14:31:57;6.28;;;2.13;;
67571;SDS011;54397;47.506;19.158;2024-03-29T14:35:23;7.50;;;2.17;;
67571;SDS011;54397;47.506;19.158;2024-03-29T14:38:44;5.68;;;2.00;;
67571;SDS011;54397;47.506;19.158;2024-03-29T14:42:05;5.90;;;2.08;;
67571;SDS011;54397;47.506;19.158;2024-03-29T14:45:29;9.55;;;2.33;;
67571;SDS011;54397;47.506;19.158;2024-03-29T14:48:52;7.57;;;2.00;;
67571;SDS011;54397;47.506;19.158;2024-03-29T14:52:12;5.90;;;2.10;;
67571;SDS011;54397;47.506;19.158;2024-03-29T14:55:36;5.10;;;1.83;;
67571;SDS011;54397;47.506;19.158;2024-03-29T14:59:03;8.68;;;2.30;;
67571;SDS011;54397;47.506;19.158;2024-03-29T15:02:26;10.80;;;3.25;;
67571;SDS011;54397;47.506;19.158;2024-03-29T15:05:49;8.88;;;2.35;;
67571;SDS011;54397;47.506;19.158;2024-03-29T15:09:12;6.60;;;1.92;;
67571;SDS011;54397;47.506;19.158;2024-03-29T15:12:33;5.70;;;1.70;;
67571;SDS011;54397;47.506;19.158;2024-03-29T15:15:57;7.13;;;1.77;;
67571;SDS011;54397;47.506;19.158;2024-03-29T15:19:20;8.15;;;1.95;;
67571;SDS011;54397;47.506;19.158;2024-03-29T15:22:42;8.98;;;4.47;;
67571;SDS011;54397;47.506;19.158;2024-03-29T15:26:05;13.50;;;7.03;;
67571;SDS011;54397;47.506;19.158;2024-03-29T15:29:28;6.32;;;1.90;;
67571;SDS011;54397;47.506;19.158;2024-03-29T15:32:51;4.72;;;1.70;;
67571;SDS011;54397;47.506;19.158;2024-03-29T15:36:18;6.70;;;2.08;;
67571;SDS011;54397;47.506;19.158;2024-03-29T15:39:39;8.45;;;1.63;;
67571;SDS011;54397;47.506;19.158;2024-03-29T15:42:59;11.50;;;2.20;;
67571;SDS011;54397;47.506;19.158;2024-03-29T15:46:20;9.07;;;1.88;;
67571;SDS011;54397;47.506;19.158;2024-03-29T15:49:44;6.80;;;2.00;;
67571;SDS011;54397;47.506;19.158;2024-03-29T15:53:04;5.53;;;1.70;;
67571;SDS011;54397;47.506;19.158;2024-03-29T15:56:25;9.23;;;2.10;;
67571;SDS011;54397;47.506;19.158;2024-03-29T15:59:50;6.93;;;2.15;;
67571;SDS011;54397;47.506;19.158;2024-03-29T16:03:12;9.45;;;2.22;;
67571;SDS011;54397;47.506;19.158;2024-03-29T16:06:33;6.55;;;1.65;;
67571;SDS011;54397;47.506;19.158;2024-03-29T16:09:54;4.32;;;1.55;;
67571;SDS011;54397;47.506;19.158;2024-03-29T16:13:24;11.05;;;2.10;;
67571;SDS011;54397;47.506;19.158;2024-03-29T16:16:45;9.38;;;2.30;;
67571;SDS011;54397;47.506;19.158;2024-03-29T16:20:06;7.70;;;2.00;;
67571;SDS011;54397;47.506;19.158;2024-03-29T16:23:31;10.50;;;2.20;;
67571;SDS011;54397;47.506;19.158;2024-03-29T16:26:54;6.88;;;1.80;;
67571;SDS011;54397;47.506;19.158;2024-03-29T16:30:15;9.63;;;3.05;;
67571;SDS011;54397;47.506;19.158;2024-03-29T16:33:38;7.35;;;2.20;;
67571;SDS011;54397;47.506;19.158;2024-03-29T16:37:01;12.57;;;2.80;;
67571;SDS011;54397;47.506;19.158;2024-03-29T16:40:24;8.45;;;2.20;;
67571;SDS011;54397;47.506;19.158;2024-03-29T16:43:46;8.88;;;2.20;;
67571;SDS011;54397;47.506;19.158;2024-03-29T16:47:07;8.00;;;2.20;;
67571;SDS011;54397;47.506;19.158;2024-03-29T16:50:28;9.48;;;2.10;;
67571;SDS011;54397;47.506;19.158;2024-03-29T16:53:50;7.32;;;2.05;;
67571;SDS011;54397;47.506;19.158;2024-03-29T16:57:11;7.10;;;2.40;;
67571;SDS011;54397;47.506;19.158;2024-03-29T17:00:34;7.68;;;2.17;;
67571;SDS011;54397;47.506;19.158;2024-03-29T17:03:55;8.10;;;2.20;;
67571;SDS011;54397;47.506;19.158;2024-03-29T17:07:16;8.38;;;2.40;;
67571;SDS011;54397;47.506;19.158;2024-03-29T17:10:42;7.18;;;2.30;;
67571;SDS011;54397;47.506;19.158;2024-03-29T17:14:05;9.05;;;2.58;;
67571;SDS011;54397;47.506;19.158;2024-03-29T17:17:29;6.60;;;2.10;;
67571;SDS011;54397;47.506;19.158;2024-03-29T17:20:50;7.15;;;2.33;;
67571;SDS011;54397;47.506;19.158;2024-03-29T17:24:11;9.65;;;2.63;;
67571;SDS011;54397;47.506;19.158;2024-03-29T17:27:35;10.27;;;2.85;;
67571;SDS011;54397;47.506;19.158;2024-03-29T17:30:57;9.73;;;2.97;;
67571;SDS011;54397;47.506;19.158;2024-03-29T17:34:20;9.02;;;2.72;;
67571;SDS011;54397;47.506;19.158;2024-03-29T17:37:43;8.98;;;2.35;;
67571;SDS011;54397;47.506;19.158;2024-03-29T17:41:04;10.00;;;2.08;;
67571;SDS011;54397;47.506;19.158;2024-03-29T17:44:27;10.40;;;2.45;;
67571;SDS011;54397;47.506;19.158;2024-03-29T17:47:50;8.85;;;2.45;;
67571;SDS011;54397;47.506;19.158;2024-03-29T17:51:16;10.82;;;2.45;;
67571;SDS011;54397;47.506;19.158;2024-03-29T17:54:37;10.75;;;2.40;;
67571;SDS011;54397;47.506;19.158;2024-03-29T17:57:57;7.97;;;2.50;;
67571;SDS011;54397;47.506;19.158;2024-03-29T18:01:18;11.20;;;2.53;;
67571;SDS011;54397;47.506;19.158;2024-03-29T18:04:39;12.48;;;2.50;;
67571;SDS011;54397;47.506;19.158;2024-03-29T18:08:04;6.43;;;2.28;;
67571;SDS011;54397;47.506;19.158;2024-03-29T18:11:27;10.68;;;2.60;;
67571;SDS011;54397;47.506;19.158;2024-03-29T18:14:50;9.43;;;2.53;;
67571;SDS011;54397;47.506;19.158;2024-03-29T18:18:14;7.50;;;2.67;;
67571;SDS011;54397;47.506;19.158;2024-03-29T18:21:35;11.70;;;3.08;;
67571;SDS011;54397;47.506;19.158;2024-03-29T18:25:04;6.82;;;2.60;;
67571;SDS011;54397;47.506;19.158;2024-03-29T18:28:30;7.70;;;2.80;;
67571;SDS011;54397;47.506;19.158;2024-03-29T18:31:53;8.60;;;2.40;;
67571;SDS011;54397;47.506;19.158;2024-03-29T18:35:14;9.63;;;2.40;;
67571;SDS011;54397;47.506;19.158;2024-03-29T18:38:37;9.35;;;2.50;;
67571;SDS011;54397;47.506;19.158;2024-03-29T18:42:01;7.80;;;2.28;;
67571;SDS011;54397;47.506;19.158;2024-03-29T18:45:21;6.90;;;2.35;;
67571;SDS011;54397;47.506;19.158;2024-03-29T18:48:45;12.52;;;2.47;;
67571;SDS011;54397;47.506;19.158;2024-03-29T18:52:06;6.75;;;2.50;;
67571;SDS011;54397;47.506;19.158;2024-03-29T18:55:27;9.73;;;2.20;;
67571;SDS011;54397;47.506;19.158;2024-03-29T18:58:50;13.85;;;2.72;;
67571;SDS011;54397;47.506;19.158;2024-03-29T19:02:11;8.23;;;2.42;;
67571;SDS011;54397;47.506;19.158;2024-03-29T19:05:34;6.85;;;2.15;;
67571;SDS011;54397;47.506;19.158;2024-03-29T19:08:54;8.90;;;2.30;;
67571;SDS011;54397;47.506;19.158;2024-03-29T19:12:15;7.80;;;2.60;;
67571;SDS011;54397;47.506;19.158;2024-03-29T19:15:43;5.53;;;2.30;;
67571;SDS011;54397;47.506;19.158;2024-03-29T19:19:06;7.50;;;2.60;;
67571;SDS011;54397;47.506;19.158;2024-03-29T19:22:29;9.43;;;2.40;;
67571;SDS011;54397;47.506;19.158;2024-03-29T19:25:50;6.57;;;2.40;;
67571;SDS011;54397;47.506;19.158;2024-03-29T19:29:11;8.20;;;2.45;;
67571;SDS011;54397;47.506;19.158;2024-03-29T19:32:32;8.73;;;2.42;;
67571;SDS011;54397;47.506;19.158;2024-03-29T19:35:56;10.85;;;2.42;;
67571;SDS011;54397;47.506;19.158;2024-03-29T19:39:17;6.80;;;2.30;;
67571;SDS011;54397;47.506;19.158;2024-03-29T19:42:38;7.32;;;2.30;;
67571;SDS011;54397;47.506;19.158;2024-03-29T19:46:00;12.55;;;2.92;;
67571;SDS011;54397;47.506;19.158;2024-03-29T19:49:21;7.63;;;2.42;;
67571;SDS011;54397;47.506;19.158;2024-03-29T19:52:44;7.30;;;2.17;;
67571;SDS011;54397;47.506;19.158;2024-03-29T19:56:10;7.13;;;2.55;;
67571;SDS011;54397;47.506;19.158;2024-03-29T19:59:34;9.95;;;3.35;;
67571;SDS011;54397;47.506;19.158;2024-03-29T20:02:57;8.15;;;2.28;;
67571;SDS011;54397;47.506;19.158;2024-03-29T20:06:18;10.27;;;2.45;;